ADDS METAR Data INFO
IDs: Format: Raw Decoded Include TAF

Data at: 0919 UTC 13 Dec 2017

KLHQ 130853Z AUTO 27005KT 10SM OVC044 M07/M12 A2991 RMK AO2 SLP139 T10671122 58002
KLHQ 130753Z AUTO 28007KT 10SM OVC046 M07/M12 A2992 RMK AO2 SLP143 T10671122
KLHQ 130653Z AUTO 26006KT 10SM FEW031 OVC049 M07/M12 A2991 RMK AO2 SLP140 T10721117
KLHQ 130615Z AUTO 28007KT 10SM SCT029 SCT035 OVC050 M07/M12 A2992 RMK AO2 T10671117
KLHQ 130553Z AUTO 28008KT 10SM BKN028 OVC035 M07/M11 A2991 RMK AO2 SNE48 SLP141 P0000 60003 T10671106 11061 21078 58006
KLHQ 130504Z AUTO 32007KT 3SM -SN BR SCT013 OVC020 M08/M09 A2992 RMK AO2 P0000 T10781089
KLHQ 130501Z AUTO 32006KT 2SM -SN BR BKN013 OVC020 M07/M09 A2992 RMK AO2 P0000 T10721089
KLHQ 130456Z AUTO 31006KT 1 1/4SM -SN BR BKN013 OVC019 M07/M09 A2992 RMK AO2 P0000 T10721089
KLHQ 130453Z AUTO 31007KT 1SM -SN BR OVC015 M07/M09 A2993 RMK AO2 SLP145 P0001 T10721089 400501078
KLHQ 130450Z AUTO 31004KT 1SM -SN BR OVC013 M07/M09 A2993 RMK AO2 P0001
KLHQ 130440Z AUTO 32007KT 1 3/4SM -SN BR OVC013 M07/M09 A2992 RMK AO2 P0001 T10721089
KLHQ 130438Z AUTO 32006KT 2 1/2SM -SN BR OVC013 M07/M09 A2993 RMK AO2 P0001 T10721089
KLHQ 130432Z AUTO 32006KT 3SM -SN BR BKN015 OVC026 M08/M09 A2993 RMK AO2 P0001 T10781089
KLHQ 130428Z AUTO 31007KT 1 1/4SM -SN BR FEW009 BKN015 OVC026 M08/M09 A2993 RMK AO2 P0001 T10781089
KLHQ 130425Z AUTO 32007KT 3/4SM -SN BR FEW009 BKN015 M08/M09 A2993 RMK AO2 P0001 T10781089
KLHQ 130418Z AUTO 33008KT 1SM -SN BR FEW009 BKN015 OVC021 M07/M09 A2993 RMK AO2 P0001 T10721094
KLHQ 130408Z AUTO 32007KT 2SM -SN BR SCT006 BKN015 OVC021 M07/M09 A2993 RMK AO2 P0000 T10721094
KLHQ 130357Z AUTO 32008KT 1 1/4SM -SN BR BKN006 BKN015 OVC022 M08/M09 A2993 RMK AO2 P0000 T10781089
KLHQ 130353Z AUTO 31007KT 1/2SM -SN FZFG BKN006 BKN015 OVC024 M08/M09 A2993 RMK AO2 SNE0259B17 SLP147 P0002 T10781094
KLHQ 130341Z AUTO 32011G20KT 1/4SM +SN FZFG BKN006 BKN015 OVC028 M08/M09 A2993 RMK AO2 SNE0259B17 P0001 T10781094
KLHQ 130334Z AUTO 31013G20KT 1SM -SN FEW008 BKN015 OVC039 M07/M09 A2994 RMK AO2 SNE0259B17 P0000 T10671094
KLHQ 130331Z AUTO 33007KT 7SM -SN SCT014 BKN025 OVC060 M07/M09 A2994 RMK AO2 SNE0259B17 P0000 T10671094
KLHQ 130306Z AUTO 29006KT 10SM FEW018 BKN031 OVC060 M07/M10 A2993 RMK AO2 SNE0259 P0000 T10671100
KLHQ 130255Z AUTO VRB06KT 3SM -SN BR FEW018 OVC024 M07/M09 A2993 RMK AO2 P0000 T10721094
KLHQ 130253Z AUTO VRB06KT 1 3/4SM -SN BR FEW018 OVC022 M07/M09 A2993 RMK AO2 SLP147 P0000 60000 T10721089 51001
KLHQ 130250Z AUTO 29006KT 1SM -SN BR BKN022 OVC065 M07/M09 A2993 RMK AO2 P0000
KLHQ 130242Z AUTO 28008KT 1 1/4SM -SN BKN030 OVC060 M07/M09 A2993 RMK AO2 P0000 T10671094
KLHQ 130233Z AUTO 27008KT 2SM -SN BKN037 OVC060 M07/M09 A2993 RMK AO2 P0000 T10671094
KLHQ 130211Z AUTO 28009G15KT 7SM -SN SCT014 OVC060 M07/M09 A2993 RMK AO2 P0000 T10671094
KLHQ 130206Z AUTO VRB05KT 2 1/2SM -SN BR FEW010 BKN016 OVC065 M07/M09 A2993 RMK AO2 P0000 T10671089
KLHQ 130201Z AUTO 28006G15KT 1SM -SN BR FEW008 BKN016 OVC065 M07/M09 A2993 RMK AO2 P0000 T10671089
KLHQ 130156Z AUTO 29007G15KT 1SM -SN BR FEW008 BKN014 OVC060 M07/M09 A2994 RMK AO2 P0000 T10671089
KLHQ 130153Z AUTO 30010G15KT 1 3/4SM -SN BR FEW011 BKN017 OVC060 M07/M09 A2994 RMK AO2 SNE15B48 SLP149 P0000 T10671089
KLHQ 130106Z AUTO 30010G18KT 4SM -SN BKN030 OVC050 M07/M09 A2993 RMK AO2 P0000 T10671094
KLHQ 130059Z AUTO 30011G18KT 2 1/2SM -SN BKN030 BKN050 OVC065 M07/M09 A2993 RMK AO2 P0000 T10671094
KLHQ 130053Z AUTO 28010G16KT 1 3/4SM -SN BKN028 OVC065 M07/M09 A2993 RMK AO2 SNB44 SLP145 P0000 T10671094
KLHQ 130051Z AUTO 29009KT 1 3/4SM -SN BKN028 OVC065 M07/M09 A2993 RMK AO2 SNB44 P0000
KLHQ 130049Z AUTO 28012KT 2 1/2SM -SN BKN028 OVC065 M06/M09 A2993 RMK AO2 SNB44 P0000
KLHQ 122353Z AUTO 30008KT 10SM SCT035 BKN060 OVC070 M06/M10 A2992 RMK AO2 SNE46 SLP141 P0000 60000 T10611100 11022 21061 51012
KLHQ 122343Z AUTO 30010G19KT 7SM -SN BKN033 OVC055 M06/M09 A2992 RMK AO2 P0000 T10611094
KLHQ 122335Z AUTO 30013G21KT 2 1/2SM -SN BKN031 BKN049 OVC075 M06/M09 A2992 RMK AO2 P0000 T10611094
KLHQ 122321Z AUTO 30010G20KT 6SM -SN BKN019 BKN038 OVC075 M06/M09 A2991 RMK AO2 P0000 T10611094
KLHQ 122313Z AUTO 30010G16KT 4SM -SN BKN012 BKN030 OVC075 M06/M09 A2991 RMK AO2 P0000 T10611089
KLHQ 122310Z AUTO 31011G16KT 1 1/4SM -SN BR BKN014 BKN055 OVC070 M06/M08 A2991 RMK AO2 P0000 T10611078
KLHQ 122258Z AUTO 31012KT 3/4SM -SN VV017 M06/M08 A2991 RMK AO2 P0000 T10561083
KLHQ 122253Z AUTO 32012G16KT 1 3/4SM -SN BKN020 OVC070 M06/M09 A2991 RMK AO2 VIS 1 1/4V4 SNB42 SLP136 P0000 T10561089
KLHQ 122249Z AUTO 31011G15KT 2 1/2SM -SN BKN022 OVC070 M06/M09 A2990 RMK AO2 SNB42 P0000
KLHQ 122153Z AUTO 31013G20KT 10SM OVC065 M04/M13 A2988 RMK AO2 SLP128 T10441128
KLHQ 122053Z AUTO 31013G21KT 10SM SCT049 BKN055 OVC075 M04/M13 A2987 RMK AO2 PK WND 31026/2017 SLP124 T10391133 53004
KLHQ 121953Z AUTO 32013KT 10SM BKN049 OVC070 M03/M12 A2986 RMK AO2 SLP119 T10331122
KLHQ 121853Z AUTO 32016KT 10SM OVC050 M04/M13 A2986 RMK AO2 PK WND 31028/1805 SLP119 T10391128
KLHQ 121753Z AUTO 31018G28KT 10SM SCT050 M03/M12 A2986 RMK AO2 PK WND 31029/1655 SLP118 60002 T10331122 10006 21039 50007
KLHQ 121653Z AUTO 32015G27KT 10SM FEW060 M03/M12 A2986 RMK AO2 PK WND 32033/1607 SLP119 T10281117
KLHQ 121553Z AUTO 33017G25KT 10SM SCT047 SCT060 M02/M11 A2986 RMK AO2 PK WND 33026/1541 SLP119 T10221106
KLHQ 121507Z AUTO 33016G21KT 10SM FEW017 BKN035 OVC041 M02/M08 A2984 RMK AO2 T10221078
KLHQ 121453Z AUTO 33014G20KT 10SM SCT017 BKN025 OVC037 M02/M06 A2984 RMK AO2 PK WND 33026/1358 SNB1355E19 SLP112 P0000 60002 T10221061 51026
KLHQ 121445Z AUTO 32014G22KT 8SM BKN015 BKN023 OVC075 M02/M05 A2983 RMK AO2 PK WND 33026/1358 SNB1355E19 P0000 T10221050
KLHQ 121421Z AUTO 32014G22KT 9SM FEW018 BKN055 OVC070 M02/M05 A2982 RMK AO2 PK WND 33026/1358 SNB1355E19 P0000 T10221050
KLHQ 121404Z AUTO 31016G26KT 2 1/2SM -SN SCT019 BKN038 OVC055 M02/M05 A2982 RMK AO2 PK WND 33026/1358 VIS 1 1/2V4 SNB1355 P0000 T10221050
KLHQ 121353Z AUTO 32018G25KT 6SM HZ SCT017 BKN026 OVC044 M02/M04 A2981 RMK AO2 PK WND 30027/1331 SNE43 SLP102 P0002 T10171044
KLHQ 121344Z AUTO 32014G24KT 6SM HZ FEW016 BKN026 OVC036 M02/M04 A2981 RMK AO2 PK WND 30027/1331 SNE43 P0002 T10171044
KLHQ 121336Z AUTO 31018G27KT 2 1/2SM -SN SCT016 BKN020 OVC027 M01/M04 A2980 RMK AO2 PK WND 30027/1331 P0002 T10111044
KLHQ 121315Z AUTO 31007KT 1 1/4SM -SN BR SCT016 OVC026 M01/M02 A2979 RMK AO2 P0001 T10111022
KLHQ 121302Z AUTO 32011KT 3/4SM -SN BR SCT016 OVC024 M01/M02 A2979 RMK AO2 P0000 T10111022
KLHQ 121257Z AUTO 32010KT 1 3/4SM -SN BR OVC024 M01/M02 A2978 RMK AO2 P0000 T10061022
KLHQ 121253Z AUTO 32012KT 4SM -SN BR FEW011 OVC024 M01/M02 A2978 RMK AO2 UPB07E10SNB10 SLP092 P0000 T10061022
KLHQ 121239Z AUTO 32013G21KT 2 1/2SM -SN BR FEW011 SCT016 OVC024 M01/M02 A2978 RMK AO2 UPB07E10SNB10 P0000 T10061022
KLHQ 121235Z AUTO 31013G21KT 1 1/2SM -SN BR SCT012 BKN016 OVC030 M01/M02 A2977 RMK AO2 UPB07E10SNB10 P0000 T10061022
KLHQ 121225Z AUTO 32012KT 1 1/4SM -SN BR BKN014 BKN020 OVC032 00/M02 A2977 RMK AO2 UPB07E10SNB10 P0000 T00001017
KLHQ 121220Z AUTO 30011KT 2SM -SN BR FEW012 BKN024 OVC028 00/M02 A2977 RMK AO2 UPB07E10SNB10 P0000 T00001017
KLHQ 121207Z AUTO 30011KT 7SM UP FEW012 BKN019 OVC040 01/M02 A2976 RMK AO2 UPB07 P0000 T00061017
KLHQ 121153Z AUTO 30007KT 6SM BR BKN014 BKN018 OVC025 01/M01 A2976 RMK AO2 UPE10SNB37E46 SLP083 P0000 60000 T00061011 10044 20006 51019
KLHQ 121123Z AUTO 30012G18KT 5SM BR OVC010 01/M01 A2975 RMK AO2 UPE10 P0000 T00061011
KLHQ 121112Z AUTO 30012G17KT 5SM BR OVC009 01/M01 A2975 RMK AO2 UPE10 CIG 008V013 P0000 T00061011
KLHQ 121053Z AUTO 29008G19KT 4SM UP BR OVC010 01/M01 A2974 RMK AO2 UPB43 CIG 008V013 SLP078 P0000 T00061011
KLHQ 121025Z AUTO 30014G20KT 6SM HZ OVC014 01/M02 A2973 RMK AO2 T00111017
KLHQ 120953Z AUTO 29008KT 8SM OVC018 02/M02 A2972 RMK AO2 SLP070 T00171017
KLHQ 120853Z AUTO 29011G19KT 10SM OVC022 03/M02 A2970 RMK AO2 SLP062 T00281017 53016
KLHQ 120813Z AUTO 28010G18KT 10SM BKN029 BKN045 OVC065 03/M02 A2968 RMK AO2 T00331022
KLHQ 120753Z AUTO 27011KT 10SM FEW046 OVC060 03/M03 A2968 RMK AO2 SLP056 T00331028
KLHQ 120653Z AUTO 27013G22KT 10SM OVC049 04/M03 A2966 RMK AO2 SLP049 T00441028
KLHQ 120553Z AUTO 25013G20KT 10SM SCT055 OVC070 04/M02 A2965 RMK AO2 SLP045 T00441022 10050 21006 55004
KLHQ 120453Z AUTO 24015G20KT 10SM CLR 05/M02 A2963 RMK AO2 SLP038 T00501022 400501011
KLHQ 120353Z AUTO 16005KT 10SM FEW110 01/M03 A2964 RMK AO2 SLP045 T00111033
KLHQ 120253Z AUTO 15006KT 10SM CLR 01/M04 A2966 RMK AO2 SLP052 T00061039 58034
KLHQ 120153Z AUTO 15006KT 10SM CLR 02/M03 A2970 RMK AO2 SLP064 T00171033
KLHQ 120053Z AUTO 17003KT 10SM FEW110 00/M03 A2974 RMK AO2 SLP078 T00001028
KLHQ 112353Z AUTO 06003KT 10SM CLR M01/M03 A2977 RMK AO2 SLP088 T10061033 10039 21006 56028
KLHQ 112253Z AUTO 11003KT 10SM CLR M01/M04 A2979 RMK AO2 SLP095 T10061039
KLHQ 112153Z AUTO 14004KT 10SM CLR 03/M03 A2983 RMK AO2 SLP107 T00281033